Time;durP1;ratioP1;P1;durP2;ratioP2;P2;SDS_P1;SDS_P2;PMS_P1;PMS_P2;Temp;Humidity;BMP_temperature;BMP_pressure;BME280_temperature;BME280_humidity;BME280_pressure;Samples;Min_cycle;Max_cycle;Signal;HPM_P1;HPM_P2
2022/04/28 00:00:34;;;;;;;;;;;;;;;9.26;100.00;98889.69;1641047;87;21104;-84
2022/04/28 00:03:02;;;;;;;;;;;;;;;9.23;100.00;98891.16;1653957;85;21293;-84
2022/04/28 00:05:29;;;;;;;;;;;;;;;9.17;100.00;98892.34;1649332;87;20233;-84
2022/04/28 00:07:55;;;;;;;;;;;;;;;9.16;100.00;98893.77;1653995;85;24721;-84
2022/04/28 00:10:21;;;;;;;;;;;;;;;9.15;100.00;98890.30;1653294;86;22044;-84
2022/04/28 00:12:47;;;;;;;;;;;;;;;9.18;100.00;98886.20;1643671;87;20975;-84
2022/04/28 00:15:13;;;;;;;;;;;;;;;9.22;100.00;98888.16;1643799;87;20791;-83
2022/04/28 00:17:39;;;;;;;;;;;;;;;9.16;100.00;98894.57;1634679;87;20507;-83
2022/04/28 00:20:06;;;;;;;;;;;;;;;9.16;100.00;98895.06;1652827;86;24722;-83
2022/04/28 00:22:31;;;;;;;;;;;;;;;9.14;100.00;98892.53;1650164;85;22162;-83
2022/04/28 00:24:57;;;;;;;;;;;;;;;9.16;100.00;98888.05;1623465;88;21083;-83
2022/04/28 00:27:23;;;;;;;;;;;;;;;9.16;100.00;98891.15;1651906;87;20863;-83
2022/04/28 00:29:49;;;;;;;;;;;;;;;9.11;100.00;98891.88;1639500;87;20313;-83
2022/04/28 00:32:15;;;;;;;;;;;;;;;9.03;100.00;98888.37;1623640;86;24778;-83
2022/04/28 00:34:41;;;;;;;;;;;;;;;8.93;100.00;98894.20;1651431;87;21980;-83
2022/04/28 00:37:09;;;;;;;;;;;;;;;8.88;100.00;98897.08;1651576;85;26074;-83
2022/04/28 00:39:37;;;;;;;;;;;;;;;8.88;100.00;98904.91;1636971;86;24594;-84
2022/04/28 00:42:10;;;;;;;;;;;;;;;8.88;100.00;98902.30;1641177;87;20290;-83
2022/04/28 00:44:36;;;;;;;;;;;;;;;8.85;100.00;98902.91;1624807;88;24807;-84
2022/04/28 00:47:02;;;;;;;;;;;;;;;8.83;100.00;98903.02;1650974;86;22029;-84
2022/04/28 00:52:15;;;;;;;;;;;;;;;8.81;100.00;98902.24;1638199;87;25301;-83
2022/04/28 00:54:42;;;;;;;;;;;;;;;8.74;100.00;98906.11;1641150;87;20235;-83
2022/04/28 00:57:10;;;;;;;;;;;;;;;8.64;100.00;98900.56;1638479;86;25525;-83
2022/04/28 00:59:38;;;;;;;;;;;;;;;8.59;100.00;98903.03;1625855;88;22677;-83
2022/04/28 01:02:05;;;;;;;;;;;;;;;8.48;100.00;98903.62;1651706;87;26653;-83
2022/04/28 01:04:31;;;;;;;;;;;;;;;8.37;100.00;98900.74;1636188;87;24395;-84
2022/04/28 01:06:57;;;;;;;;;;;;;;;8.25;100.00;98908.72;1638441;87;20198;-84
2022/04/28 01:09:23;;;;;;;;;;;;;;;8.11;100.00;98903.86;1641844;86;20325;-83
2022/04/28 01:11:50;;;;;;;;;;;;;;;7.96;100.00;98901.59;1643498;87;22086;-85
2022/04/28 01:14:16;;;;;;;;;;;;;;;7.83;100.00;98901.38;1640101;87;26052;-84
2022/04/28 01:16:42;;;;;;;;;;;;;;;7.74;100.00;98897.95;1652033;86;24584;-84
2022/04/28 01:19:08;;;;;;;;;;;;;;;7.76;100.00;98901.75;1650015;87;20258;-84
2022/04/28 01:21:34;;;;;;;;;;;;;;;7.76;100.00;98905.20;1654270;86;20769;-84
2022/04/28 01:24:02;;;;;;;;;;;;;;;7.73;100.00;98904.08;1638485;87;22158;-84
2022/04/28 01:26:28;;;;;;;;;;;;;;;7.70;100.00;98903.37;1650450;86;26590;-84
2022/04/28 01:28:54;;;;;;;;;;;;;;;7.66;100.00;98903.99;1651650;86;24687;-84
2022/04/28 01:31:20;;;;;;;;;;;;;;;7.59;100.00;98902.61;1639818;87;20295;-84
2022/04/28 01:33:48;;;;;;;;;;;;;;;7.52;100.00;98903.40;1640554;87;20309;-84
2022/04/28 01:36:14;;;;;;;;;;;;;;;7.51;100.00;98904.77;1637826;87;22014;-85
2022/04/28 01:38:45;;;;;;;;;;;;;;;7.52;100.00;98907.77;1639546;87;25969;-85
2022/04/28 01:41:11;;;;;;;;;;;;;;;7.56;100.00;98906.68;1638416;86;24552;-83
2022/04/28 01:43:37;;;;;;;;;;;;;;;7.60;100.00;98909.97;1636977;86;20286;-83
2022/04/28 01:46:03;;;;;;;;;;;;;;;7.58;100.00;98904.37;1637802;86;20247;-84
2022/04/28 01:48:31;;;;;;;;;;;;;;;7.61;100.00;98911.66;1648249;86;20761;-84
2022/04/28 01:56:28;;;;;;;;;;;;;;;7.46;100.00;98906.77;1650084;86;20244;-84
2022/04/28 01:58:54;;;;;;;;;;;;;;;7.46;100.00;98910.67;1653353;86;24768;-83
2022/04/28 02:01:20;;;;;;;;;;;;;;;7.44;100.00;98911.19;1648470;86;22095;-84
2022/04/28 02:03:46;;;;;;;;;;;;;;;7.46;100.00;98908.06;1649753;86;26078;-84
2022/04/28 02:06:12;;;;;;;;;;;;;;;7.47;100.00;98916.27;1647261;86;24442;-84
2022/04/28 02:08:39;;;;;;;;;;;;;;;7.46;100.00;98918.48;1640854;85;20342;-84
2022/04/28 02:11:07;;;;;;;;;;;;;;;7.46;100.00;98914.58;1651365;86;24678;-84
2022/04/28 02:13:35;;;;;;;;;;;;;;;7.42;100.00;98912.56;1651832;86;22714;-85
2022/04/28 02:16:02;;;;;;;;;;;;;;;7.42;100.00;98916.92;1632763;86;26014;-84
2022/04/28 02:18:32;;;;;;;;;;;;;;;7.48;100.00;98919.23;1646997;86;24397;-85
2022/04/28 02:20:55;;;;;;;;;;;;;;;7.48;100.00;98912.72;1649030;86;20537;-84
2022/04/28 02:23:22;;;;;;;;;;;;;;;7.46;100.00;98911.97;1650245;86;24805;-85
2022/04/28 02:25:47;;;;;;;;;;;;;;;7.45;100.00;98916.33;1650087;86;20453;-85
2022/04/28 02:28:15;;;;;;;;;;;;;;;7.41;100.00;98913.96;1650291;86;21070;-83
2022/04/28 02:30:41;;;;;;;;;;;;;;;7.39;100.00;98917.09;1651402;85;24530;-84
2022/04/28 02:33:10;;;;;;;;;;;;;;;7.40;100.00;98914.88;1648890;86;20238;-83
2022/04/28 02:35:38;;;;;;;;;;;;;;;7.42;100.00;98923.43;1649016;86;25631;-82
2022/04/28 02:38:04;;;;;;;;;;;;;;;7.43;100.00;98925.13;1650689;86;21991;-83
2022/04/28 02:40:30;;;;;;;;;;;;;;;7.46;100.00;98919.33;1648228;86;21017;-83
2022/04/28 02:42:56;;;;;;;;;;;;;;;7.49;100.00;98919.61;1639684;86;24530;-82
2022/04/28 02:45:22;;;;;;;;;;;;;;;7.47;100.00;98917.56;1646422;86;20449;-83
2022/04/28 02:47:48;;;;;;;;;;;;;;;7.46;100.00;98916.72;1657025;86;24806;-83
2022/04/28 02:50:15;;;;;;;;;;;;;;;7.48;100.00;98919.23;1620024;88;21972;-83
2022/04/28 02:52:41;;;;;;;;;;;;;;;7.51;100.00;98921.70;1616215;87;26027;-83
2022/04/28 02:55:08;;;;;;;;;;;;;;;7.52;100.00;98919.03;1585035;89;20283;-83
2022/04/28 02:57:34;;;;;;;;;;;;;;;7.58;100.00;98921.30;1600026;89;20457;-83
2022/04/28 03:00:02;;;;;;;;;;;;;;;7.62;100.00;98918.09;1617411;88;25491;-84
2022/04/28 03:02:35;;;;;;;;;;;;;;;7.63;100.00;98918.95;1615667;88;22203;-85
2022/04/28 03:05:04;;;;;;;;;;;;;;;7.54;100.00;98918.47;1619098;88;26256;-84
2022/04/28 03:10:50;;;;;;;;;;;;;;;7.43;100.00;98923.36;1611366;88;20249;-84
2022/04/28 03:13:20;;;;;;;;;;;;;;;7.37;100.00;98930.62;1613281;88;24902;-85
2022/04/28 03:15:46;;;;;;;;;;;;;;;7.33;100.00;98931.25;1616278;88;21342;-84
2022/04/28 03:18:13;;;;;;;;;;;;;;;7.29;100.00;98929.72;1618747;88;21040;-84
2022/04/28 03:20:40;;;;;;;;;;;;;;;7.23;100.00;98930.47;1619048;88;24527;-84
2022/04/28 03:23:06;;;;;;;;;;;;;;;7.17;100.00;98937.27;1615751;88;20456;-83
2022/04/28 03:25:32;;;;;;;;;;;;;;;7.09;100.00;98931.14;1610994;88;24735;-83
2022/04/28 03:27:58;;;;;;;;;;;;;;;7.05;100.00;98934.33;1616779;88;20485;-83
2022/04/28 03:30:24;;;;;;;;;;;;;;;7.05;100.00;98946.05;1615819;88;26126;-82
2022/04/28 03:32:50;;;;;;;;;;;;;;;7.02;100.00;98946.20;1618481;88;24505;-83
2022/04/28 03:35:16;;;;;;;;;;;;;;;6.98;100.00;98946.42;1612739;88;20301;-83
2022/04/28 03:37:47;;;;;;;;;;;;;;;6.89;100.00;98945.08;1585245;89;24910;-83
2022/04/28 03:40:13;;;;;;;;;;;;;;;6.84;100.00;98946.20;1598457;89;21988;-83
2022/04/28 03:42:39;;;;;;;;;;;;;;;6.82;100.00;98945.45;1615859;88;26125;-84
2022/04/28 03:45:05;;;;;;;;;;;;;;;6.84;100.00;98944.45;1613631;88;25087;-84
2022/04/28 03:47:32;;;;;;;;;;;;;;;6.82;100.00;98951.47;1639673;86;20202;-84
2022/04/28 03:49:59;;;;;;;;;;;;;;;6.85;100.00;98947.45;1656573;85;25655;-83
2022/04/28 03:52:25;;;;;;;;;;;;;;;6.94;100.00;98951.36;1655182;86;22735;-82
2022/04/28 03:54:51;;;;;;;;;;;;;;;6.99;100.00;98952.84;1656314;86;26152;-83
2022/04/28 03:57:17;;;;;;;;;;;;;;;7.00;100.00;98955.83;1633378;86;20332;-83
2022/04/28 03:59:43;;;;;;;;;;;;;;;7.00;100.00;98949.78;1652099;86;20496;-83
2022/04/28 04:02:11;;;;;;;;;;;;;;;7.02;100.00;98960.52;1650827;86;20423;-82
2022/04/28 04:04:37;;;;;;;;;;;;;;;7.06;100.00;98962.50;1659792;86;21970;-83
2022/04/28 04:07:04;;;;;;;;;;;;;;;7.10;100.00;98966.64;1654557;86;25915;-83
2022/04/28 04:09:30;;;;;;;;;;;;;;;7.11;100.00;98970.48;1653419;86;24442;-82
2022/04/28 04:11:55;;;;;;;;;;;;;;;7.18;100.00;98967.59;1618784;87;20284;-82
2022/04/28 04:14:21;;;;;;;;;;;;;;;7.22;100.00;98973.03;1599344;87;20801;-82
2022/04/28 04:16:47;;;;;;;;;;;;;;;7.30;100.00;98973.52;1616190;87;21919;-83
2022/04/28 04:19:14;;;;;;;;;;;;;;;7.38;100.00;98979.19;1618071;88;21100;-83
2022/04/28 04:21:40;;;;;;;;;;;;;;;7.44;100.00;98977.59;1616125;88;24430;-83
2022/04/28 04:24:06;;;;;;;;;;;;;;;7.51;100.00;98978.53;1616837;88;20532;-83
2022/04/28 04:26:32;;;;;;;;;;;;;;;7.60;100.00;98981.59;1616159;88;24796;-82
2022/04/28 04:28:59;;;;;;;;;;;;;;;7.58;100.00;98979.09;1616322;88;22020;-83
2022/04/28 04:34:09;;;;;;;;;;;;;;;7.53;100.00;98982.34;1596280;89;24487;-83
2022/04/28 04:36:37;;;;;;;;;;;;;;;7.53;100.00;98988.85;1624001;88;20529;-83
2022/04/28 04:39:04;;;;;;;;;;;;;;;7.52;100.00;98990.64;1627937;87;25332;-83
2022/04/28 04:41:32;;;;;;;;;;;;;;;7.53;100.00;98991.00;1624221;88;22079;-85
2022/04/28 04:43:58;;;;;;;;;;;;;;;7.58;100.00;98995.17;1626884;87;26052;-84
2022/04/28 04:46:24;;;;;;;;;;;;;;;7.59;100.00;98996.38;1625910;87;20298;-84
2022/04/28 04:48:50;;;;;;;;;;;;;;;7.60;100.00;98992.01;1666155;85;20387;-84
2022/04/28 04:51:16;;;;;;;;;;;;;;;7.64;100.00;98987.05;1665062;85;20301;-84
2022/04/28 04:53:42;;;;;;;;;;;;;;;7.71;100.00;98987.12;1670780;85;20448;-84
2022/04/28 04:56:08;;;;;;;;;;;;;;;7.76;100.00;98992.94;1651138;86;21584;-84
2022/04/28 04:58:34;;;;;;;;;;;;;;;7.78;100.00;98990.66;1621519;87;24558;-83
2022/04/28 05:01:01;;;;;;;;;;;;;;;7.80;100.00;98992.70;1670826;85;20390;-85
2022/04/28 05:03:27;;;;;;;;;;;;;;;7.86;100.00;98995.47;1664049;85;24896;-84
2022/04/28 05:05:53;;;;;;;;;;;;;;;7.94;100.00;98990.27;1654975;86;22063;-84
2022/04/28 05:08:19;;;;;;;;;;;;;;;8.03;100.00;98992.86;1644554;86;21078;-83
2022/04/28 05:10:45;;;;;;;;;;;;;;;8.07;100.00;98997.48;1624194;87;20866;-83
2022/04/28 05:13:17;;;;;;;;;;;;;;;8.10;100.00;98995.55;1650069;86;20381;-83
2022/04/28 05:15:47;;;;;;;;;;;;;;;8.16;100.00;99000.91;1647990;85;25577;-83
2022/04/28 05:18:11;;;;;;;;;;;;;;;8.23;100.00;99005.75;1637081;86;22808;-83
2022/04/28 05:20:37;;;;;;;;;;;;;;;8.28;100.00;99008.12;1673545;85;21028;-83
2022/04/28 05:23:03;;;;;;;;;;;;;;;8.31;100.00;99009.28;1673587;85;20907;-83
2022/04/28 05:25:29;;;;;;;;;;;;;;;8.37;100.00;99007.66;1645896;85;20315;-83
2022/04/28 05:27:55;;;;;;;;;;;;;;;8.45;100.00;99009.43;1672431;85;20719;-83
2022/04/28 05:30:22;;;;;;;;;;;;;;;8.52;100.00;99015.98;1673436;85;22014;-84
2022/04/28 05:32:55;;;;;;;;;;;;;;;8.58;100.00;99019.59;1650611;86;26875;-83
2022/04/28 05:35:21;;;;;;;;;;;;;;;8.63;100.00;99014.97;1626996;87;24492;-83
2022/04/28 05:37:47;;;;;;;;;;;;;;;8.72;100.00;99022.80;1648351;86;20607;-83
2022/04/28 05:40:16;;;;;;;;;;;;;;;8.77;100.00;99024.69;1649986;86;24883;-83
2022/04/28 05:45:43;;;;;;;;;;;;;;;8.82;100.00;99022.68;1644983;86;26067;-83
2022/04/28 05:48:09;;;;;;;;;;;;;;;8.90;100.00;99020.48;1659789;84;24663;-84
2022/04/28 05:50:36;;;;;;;;;;;;;;;8.95;100.00;99024.14;1668841;85;20194;-84
2022/04/28 05:53:02;;;;;;;;;;;;;;;8.95;100.00;99022.38;1668237;85;24983;-84
2022/04/28 05:55:28;;;;;;;;;;;;;;;8.97;100.00;99028.38;1665361;85;20370;-84
2022/04/28 05:57:54;;;;;;;;;;;;;;;9.03;100.00;99027.20;1665996;85;25979;-83
2022/04/28 06:00:20;;;;;;;;;;;;;;;9.09;100.00;99026.88;1663575;85;24360;-83
2022/04/28 06:02:46;;;;;;;;;;;;;;;9.14;100.00;99025.70;1668394;85;20200;-84
2022/04/28 06:05:14;;;;;;;;;;;;;;;9.20;100.00;99026.67;1667494;85;20357;-83
2022/04/28 06:07:40;;;;;;;;;;;;;;;9.26;100.00;99028.56;1666309;85;22086;-84
2022/04/28 06:10:06;;;;;;;;;;;;;;;9.30;100.00;99027.47;1668684;85;21165;-84
2022/04/28 06:12:32;;;;;;;;;;;;;;;9.33;100.00;99026.00;1666435;85;25248;-84
2022/04/28 06:14:58;;;;;;;;;;;;;;;9.42;100.00;99028.95;1667081;85;20834;-84
2022/04/28 06:17:24;;;;;;;;;;;;;;;9.51;100.00;99032.80;1669240;85;20263;-84
2022/04/28 06:19:50;;;;;;;;;;;;;;;9.52;100.00;99036.64;1669009;85;20246;-84
2022/04/28 06:22:16;;;;;;;;;;;;;;;9.58;100.00;99041.53;1666869;85;21033;-84
2022/04/28 06:24:42;;;;;;;;;;;;;;;9.62;100.00;99038.27;1668406;85;20857;-84
2022/04/28 06:27:08;;;;;;;;;;;;;;;9.60;100.00;99042.75;1666465;85;20381;-84
2022/04/28 06:29:34;;;;;;;;;;;;;;;9.57;100.00;99038.98;1667401;85;20232;-84
2022/04/28 06:32:03;;;;;;;;;;;;;;;9.52;100.00;99037.95;1664583;85;20306;-84
2022/04/28 06:34:29;;;;;;;;;;;;;;;9.52;100.00;99039.72;1679265;85;26011;-84
2022/04/28 06:36:55;;;;;;;;;;;;;;;9.60;100.00;99037.04;1667384;85;20338;-84
2022/04/28 06:39:21;;;;;;;;;;;;;;;9.65;100.00;99040.72;1665673;85;20861;-84
2022/04/28 06:41:47;;;;;;;;;;;;;;;9.69;100.00;99040.92;1669194;85;20794;-84
2022/04/28 06:44:13;;;;;;;;;;;;;;;9.73;100.00;99044.19;1670850;85;22032;-84
2022/04/28 06:46:39;;;;;;;;;;;;;;;9.76;100.00;99040.96;1672169;85;21020;-84
2022/04/28 06:49:05;;;;;;;;;;;;;;;9.82;100.00;99040.58;1657203;85;24429;-85
2022/04/28 06:51:31;;;;;;;;;;;;;;;9.90;100.00;99046.23;1655721;86;20469;-84
2022/04/28 06:54:00;;;;;;;;;;;;;;;9.93;100.00;99043.89;1651887;86;24758;-84
2022/04/28 06:56:28;;;;;;;;;;;;;;;10.02;100.00;99035.08;1646253;86;22155;-84
2022/04/28 06:58:54;;;;;;;;;;;;;;;10.14;100.00;99040.52;1648257;86;26001;-85
2022/04/28 07:01:20;;;;;;;;;;;;;;;10.22;100.00;99044.86;1677641;85;24386;-85
2022/04/28 07:03:46;;;;;;;;;;;;;;;10.30;100.00;99050.03;1677395;85;20726;-85
2022/04/28 07:06:16;;;;;;;;;;;;;;;10.37;100.00;99047.87;1674784;84;25045;-85
2022/04/28 07:08:43;;;;;;;;;;;;;;;10.46;100.00;99053.42;1647881;86;22139;-85
2022/04/28 07:11:09;;;;;;;;;;;;;;;10.58;100.00;99054.48;1675113;85;26708;-85
2022/04/28 07:13:36;;;;;;;;;;;;;;;10.64;100.00;99061.08;1672570;85;24594;-85
2022/04/28 07:16:02;;;;;;;;;;;;;;;10.66;100.00;99057.92;1676972;84;20265;-84
2022/04/28 07:18:28;;;;;;;;;;;;;;;10.72;100.00;99058.86;1643280;86;24812;-84
2022/04/28 07:20:54;;;;;;;;;;;;;;;10.77;100.00;99057.66;1673196;85;21964;-83
2022/04/28 07:23:20;;;;;;;;;;;;;;;10.85;100.00;99066.36;1673327;85;21038;-85
2022/04/28 07:25:46;;;;;;;;;;;;;;;10.92;100.00;99066.34;1668636;85;20374;-84
2022/04/28 07:28:12;;;;;;;;;;;;;;;11.00;100.00;99067.19;1671038;85;20251;-85
2022/04/28 07:30:39;;;;;;;;;;;;;;;11.07;100.00;99069.81;1671325;85;25377;-84
2022/04/28 07:33:06;;;;;;;;;;;;;;;11.13;100.00;99073.34;1669470;85;21970;-84
2022/04/28 07:35:36;;;;;;;;;;;;;;;11.22;100.00;99074.10;1671985;85;25695;-83
2022/04/28 07:38:02;;;;;;;;;;;;;;;11.20;100.00;99074.19;1668934;85;24497;-83
2022/04/28 07:40:29;;;;;;;;;;;;;;;11.28;100.00;99073.72;1671147;85;20308;-83
2022/04/28 07:42:56;;;;;;;;;;;;;;;11.32;100.00;99078.67;1667032;85;25501;-85
2022/04/28 07:45:22;;;;;;;;;;;;;;;11.35;100.00;99078.93;1670270;85;21986;-84
2022/04/28 07:47:49;;;;;;;;;;;;;;;11.40;100.00;99074.23;1671635;84;26047;-84
2022/04/28 07:50:17;;;;;;;;;;;;;;;11.48;100.00;99075.92;1663331;85;24460;-84
2022/04/28 07:52:44;;;;;;;;;;;;;;;11.54;100.00;99078.63;1658946;85;20206;-84
2022/04/28 07:55:12;;;;;;;;;;;;;;;11.69;100.00;99077.17;1638422;85;20263;-84
2022/04/28 07:57:38;;;;;;;;;;;;;;;11.79;100.00;99076.61;1663381;85;21983;-84
2022/04/28 08:00:05;;;;;;;;;;;;;;;11.93;100.00;99081.35;1664321;85;26026;-84
2022/04/28 08:02:38;;;;;;;;;;;;;;;12.02;100.00;99084.67;1664696;85;24472;-84
2022/04/28 08:05:06;;;;;;;;;;;;;;;12.13;100.00;99080.88;1664298;85;20251;-84
2022/04/28 08:07:35;;;;;;;;;;;;;;;12.26;100.00;99077.45;1663345;85;24847;-84
2022/04/28 08:10:01;;;;;;;;;;;;;;;12.39;100.00;99076.98;1670374;85;22006;-84
2022/04/28 08:12:27;;;;;;;;;;;;;;;12.50;100.00;99078.42;1668392;85;26093;-85
2022/04/28 08:14:54;;;;;;;;;;;;;;;12.54;100.00;99079.92;1661053;85;24386;-84
2022/04/28 08:17:20;;;;;;;;;;;;;;;12.64;100.00;99074.88;1661619;85;20217;-85
2022/04/28 08:19:50;;;;;;;;;;;;;;;12.75;100.00;99081.08;1663796;85;24950;-85
2022/04/28 08:22:16;;;;;;;;;;;;;;;12.79;100.00;99077.30;1663784;85;21991;-85
2022/04/28 08:24:42;;;;;;;;;;;;;;;12.89;100.00;99077.02;1662599;85;26161;-85
2022/04/28 08:27:09;;;;;;;;;;;;;;;12.96;100.00;99076.98;1665231;85;24397;-85
2022/04/28 08:29:35;;;;;;;;;;;;;;;12.99;100.00;99072.81;1661182;85;20315;-85
2022/04/28 08:32:01;;;;;;;;;;;;;;;13.04;100.00;99074.30;1663109;85;24794;-84
2022/04/28 08:34:27;;;;;;;;;;;;;;;13.04;100.00;99074.30;1663531;85;22069;-83
2022/04/28 08:36:53;;;;;;;;;;;;;;;13.05;100.00;99075.95;1665350;85;25949;-84
2022/04/28 08:39:19;;;;;;;;;;;;;;;13.14;100.00;99072.73;1663327;85;24467;-85
2022/04/28 08:41:45;;;;;;;;;;;;;;;13.22;100.00;99080.44;1670417;85;20875;-84
2022/04/28 08:44:13;;;;;;;;;;;;;;;13.29;100.00;99077.75;1665854;85;24810;-84
2022/04/28 08:46:51;;;;;;;;;;;;;;;13.25;100.00;99075.45;1636299;87;23658;-84
2022/04/28 08:49:24;;;;;;;;;;;;;;;13.26;100.00;99084.52;1657399;85;26051;-85
2022/04/28 08:51:52;;;;;;;;;;;;;;;13.30;100.00;99083.86;1660753;84;24494;-84
2022/04/28 08:54:20;;;;;;;;;;;;;;;13.32;100.00;99080.16;1659580;85;20475;-84
2022/04/28 08:56:46;;;;;;;;;;;;;;;13.38;100.00;99074.47;1666017;85;24825;-83
2022/04/28 08:59:14;;;;;;;;;;;;;;;13.48;100.00;99080.38;1664878;85;21961;-84
2022/04/28 09:01:43;;;;;;;;;;;;;;;13.61;100.00;99077.24;1666859;84;27089;-84
2022/04/28 09:04:10;;;;;;;;;;;;;;;13.75;100.00;99076.60;1636824;86;24626;-84
2022/04/28 09:06:38;;;;;;;;;;;;;;;13.91;100.00;99071.06;1663825;86;20245;-84
2022/04/28 09:09:06;;;;;;;;;;;;;;;14.06;99.83;99077.85;1664636;86;24875;-84
2022/04/28 09:11:37;;;;;;;;;;;;;;;14.09;98.85;99072.34;1665985;86;22152;-85
2022/04/28 09:14:13;;;;;;;;;;;;;;;14.12;97.77;99070.82;1619763;86;21339;-83
2022/04/28 09:16:46;;;;;;;;;;;;;;;14.22;97.25;99065.23;1664820;86;25286;-82
2022/04/28 09:19:24;;;;;;;;;;;;;;;14.35;97.03;99071.71;1665281;86;20184;-83
2022/04/28 09:21:53;;;;;;;;;;;;;;;14.35;96.41;99063.81;1664395;86;24847;-85
2022/04/28 09:24:19;;;;;;;;;;;;;;;14.23;94.67;99061.65;1638076;87;22859;-84
2022/04/28 09:26:46;;;;;;;;;;;;;;;14.30;93.88;99060.69;1664765;86;26188;-84
2022/04/28 09:29:13;;;;;;;;;;;;;;;14.40;93.18;99060.39;1656853;85;24541;-84
2022/04/28 09:31:39;;;;;;;;;;;;;;;14.60;93.07;99064.16;1666192;85;20191;-84
2022/04/28 09:34:07;;;;;;;;;;;;;;;14.74;92.76;99055.19;1664361;85;24818;-85
2022/04/28 09:36:33;;;;;;;;;;;;;;;14.87;92.57;99063.84;1635887;87;22055;-85
2022/04/28 09:38:59;;;;;;;;;;;;;;;15.01;92.30;99059.16;1637741;87;21053;-85
2022/04/28 09:44:12;;;;;;;;;;;;;;;15.25;91.56;99061.69;1661614;85;20448;-84
2022/04/28 09:46:41;;;;;;;;;;;;;;;15.14;90.19;99066.96;1654967;85;24911;-85
2022/04/28 09:49:16;;;;;;;;;;;;;;;15.15;89.64;99063.84;1659505;83;21953;-85
2022/04/28 09:51:44;;;;;;;;;;;;;;;15.18;89.14;99065.75;1639978;87;26009;-85
2022/04/28 09:54:11;;;;;;;;;;;;;;;15.05;87.56;99070.33;1640643;87;24520;-84
2022/04/28 09:56:39;;;;;;;;;;;;;;;14.90;85.91;99066.22;1654879;86;20216;-85
2022/04/28 09:59:09;;;;;;;;;;;;;;;14.81;84.62;99066.94;1648113;86;25087;-84
2022/04/28 10:01:34;;;;;;;;;;;;;;;14.76;83.47;99073.05;1624695;87;23162;-84
2022/04/28 10:04:00;;;;;;;;;;;;;;;14.76;82.47;99062.51;1651418;85;26038;-84
2022/04/28 10:06:35;;;;;;;;;;;;;;;14.74;81.30;99070.99;1650662;87;24446;-84
2022/04/28 10:09:05;;;;;;;;;;;;;;;14.72;80.39;99065.02;1651698;85;20255;-84
2022/04/28 10:11:31;;;;;;;;;;;;;;;14.66;79.25;99061.06;1650003;87;24772;-84
2022/04/28 10:13:59;;;;;;;;;;;;;;;14.67;78.40;99058.80;1641177;86;22087;-84
2022/04/28 10:16:25;;;;;;;;;;;;;;;14.71;77.84;99053.64;1635799;87;26087;-84
2022/04/28 10:19:00;;;;;;;;;;;;;;;14.75;77.35;99058.19;1641695;87;24545;-84
2022/04/28 10:21:29;;;;;;;;;;;;;;;14.81;76.91;99061.67;1626462;88;20240;-83
2022/04/28 10:32:32;;;;;;;;;;;;;;;15.01;74.25;99057.00;1640891;87;24498;-83
2022/04/28 10:35:01;;;;;;;;;;;;;;;14.97;72.55;99055.57;1641222;86;20261;-84
2022/04/28 10:37:31;;;;;;;;;;;;;;;15.01;71.59;99055.69;1637749;87;24900;-84
2022/04/28 10:40:04;;;;;;;;;;;;;;;15.12;71.52;99051.73;1640512;86;22082;-84
2022/04/28 10:42:32;;;;;;;;;;;;;;;15.25;71.49;99049.82;1652565;85;26098;-84
2022/04/28 10:45:05;;;;;;;;;;;;;;;15.39;71.14;99052.19;1642776;87;25371;-84
2022/04/28 10:47:38;;;;;;;;;;;;;;;15.45;70.77;99054.34;1639610;87;20235;-86
2022/04/28 10:50:05;;;;;;;;;;;;;;;15.35;69.31;99054.72;1654329;86;26150;-84
2022/04/28 10:52:33;;;;;;;;;;;;;;;15.40;68.53;99050.39;1656848;86;21994;-84
2022/04/28 10:55:01;;;;;;;;;;;;;;;15.53;68.45;99058.20;1663394;85;26016;-84
2022/04/28 10:57:29;;;;;;;;;;;;;;;15.60;68.42;99057.57;1659385;86;25137;-84
2022/04/28 10:59:55;;;;;;;;;;;;;;;15.61;68.34;99063.21;1661612;86;20190;-84
2022/04/28 11:02:23;;;;;;;;;;;;;;;15.58;68.28;99063.95;1664188;86;24819;-85
2022/04/28 11:04:52;;;;;;;;;;;;;;;15.50;67.96;99054.80;1644261;86;20491;-86
2022/04/28 11:07:20;;;;;;;;;;;;;;;15.47;67.62;99066.94;1662048;86;26189;-84
2022/04/28 11:10:07;;;;;;;;;;;;;;;15.52;67.70;99060.00;1653845;86;25086;-85
2022/04/28 11:12:42;;;;;;;;;;;;;;;15.67;67.94;99060.08;1663015;86;20227;-85
2022/04/28 11:15:08;;;;;;;;;;;;;;;15.82;68.06;99060.16;1656230;85;24750;-85
2022/04/28 11:17:37;;;;;;;;;;;;;;;16.04;68.15;99065.03;1659425;86;21449;-85
2022/04/28 11:20:07;;;;;;;;;;;;;;;16.19;68.03;99058.00;1657438;85;26033;-84
2022/04/28 11:22:33;;;;;;;;;;;;;;;16.37;68.01;99054.28;1661149;86;24546;-84
2022/04/28 11:25:03;;;;;;;;;;;;;;;16.51;67.89;99050.02;1658461;85;20182;-84
2022/04/28 11:27:27;;;;;;;;;;;;;;;16.52;67.13;99054.82;1656641;85;24758;-85
2022/04/28 11:30:14;;;;;;;;;;;;;;;16.46;66.61;99052.21;1662496;85;22034;-84
2022/04/28 11:32:53;;;;;;;;;;;;;;;16.43;66.16;99056.89;1658839;86;26720;-84
2022/04/28 11:35:20;;;;;;;;;;;;;;;16.33;65.65;99056.36;1658119;86;24533;-84
2022/04/28 11:37:50;;;;;;;;;;;;;;;16.11;64.79;99064.37;1633160;86;20199;-86
2022/04/28 11:40:25;;;;;;;;;;;;;;;15.81;63.40;99061.63;1659383;86;24847;-86
2022/04/28 11:42:58;;;;;;;;;;;;;;;15.59;62.64;99061.20;1659929;86;22165;-87
2022/04/28 11:45:25;;;;;;;;;;;;;;;15.40;62.03;99061.78;1664193;86;25485;-86
2022/04/28 11:47:59;;;;;;;;;;;;;;;15.23;61.37;99070.19;1665600;84;24531;-84
2022/04/28 11:50:26;;;;;;;;;;;;;;;15.16;61.14;99072.13;1657574;84;20219;-85
2022/04/28 11:53:00;;;;;;;;;;;;;;;15.10;60.97;99080.03;1654919;86;24768;-86
2022/04/28 11:55:35;;;;;;;;;;;;;;;15.00;60.45;99071.17;1645247;86;22189;-85
2022/04/28 11:57:56;;;;;;;;;;;;;;;14.92;59.91;99065.16;1670418;85;26634;-85
2022/04/28 12:00:25;;;;;;;;;;;;;;;14.94;59.72;99067.69;1654374;86;24440;-85
2022/04/28 12:02:53;;;;;;;;;;;;;;;14.97;59.54;99064.32;1678776;85;20311;-84
2022/04/28 12:05:25;;;;;;;;;;;;;;;15.07;59.44;99063.95;1678205;85;24743;-85
2022/04/28 12:07:52;;;;;;;;;;;;;;;15.19;59.47;99064.80;1672592;85;22009;-86
2022/04/28 12:16:14;;;;;;;;;;;;;;;15.62;59.75;99060.94;1646995;86;20169;-84
2022/04/28 12:21:26;;;;;;;;;;;;;;;15.91;59.54;99058.58;1670622;85;22004;-84
2022/04/28 12:23:55;;;;;;;;;;;;;;;16.03;59.26;99056.27;1666359;85;26081;-84
2022/04/28 12:26:26;;;;;;;;;;;;;;;16.12;59.09;99054.66;1673218;85;24419;-85
2022/04/28 12:28:50;;;;;;;;;;;;;;;16.11;58.75;99049.86;1672017;85;20221;-83
2022/04/28 12:31:27;;;;;;;;;;;;;;;16.12;58.54;99047.58;1669729;85;24787;-83
2022/04/28 12:33:54;;;;;;;;;;;;;;;16.21;58.42;99048.60;1672662;85;21946;-84
2022/04/28 12:36:20;;;;;;;;;;;;;;;16.20;58.18;99047.77;1672172;85;26053;-84
2022/04/28 12:38:49;;;;;;;;;;;;;;;16.12;57.72;99050.22;1664781;84;24504;-84
2022/04/28 12:41:19;;;;;;;;;;;;;;;16.06;57.18;99045.44;1670097;84;20185;-83
2022/04/28 12:43:56;;;;;;;;;;;;;;;16.12;57.06;99049.38;1666977;85;24783;-84
2022/04/28 12:46:28;;;;;;;;;;;;;;;16.22;56.90;99037.92;1665564;85;22108;-83
2022/04/28 12:48:54;;;;;;;;;;;;;;;16.33;56.63;99039.66;1669549;85;26087;-83
2022/04/28 12:51:26;;;;;;;;;;;;;;;16.42;56.45;99039.39;1646248;85;24567;-83
2022/04/28 12:53:54;;;;;;;;;;;;;;;16.38;56.13;99038.80;1654462;86;20200;-83
2022/04/28 12:56:27;;;;;;;;;;;;;;;16.35;55.88;99040.39;1646700;86;24789;-83
2022/04/28 12:59:00;;;;;;;;;;;;;;;16.41;55.81;99046.48;1651311;85;22768;-83
2022/04/28 13:01:27;;;;;;;;;;;;;;;16.52;55.77;99035.84;1645308;86;26014;-83
2022/04/28 13:03:55;;;;;;;;;;;;;;;16.70;55.96;99027.69;1649174;86;24623;-83
2022/04/28 13:06:29;;;;;;;;;;;;;;;16.94;56.07;99030.04;1649202;86;20262;-84
2022/04/28 13:08:56;;;;;;;;;;;;;;;17.11;56.04;99026.77;1653229;85;24802;-84
2022/04/28 13:11:24;;;;;;;;;;;;;;;17.20;55.64;99034.38;1633638;86;22742;-83
2022/04/28 13:13:50;;;;;;;;;;;;;;;17.19;55.39;99035.34;1637964;86;25988;-83
2022/04/28 13:16:17;;;;;;;;;;;;;;;17.15;55.10;99041.88;1649436;86;24448;-84
2022/04/28 13:18:46;;;;;;;;;;;;;;;17.04;54.52;99034.88;1641373;86;20257;-83
2022/04/28 13:21:12;;;;;;;;;;;;;;;16.95;54.13;99035.69;1643998;86;24769;-84
2022/04/28 13:23:39;;;;;;;;;;;;;;;16.91;53.93;99036.89;1643720;86;21970;-84